Time;durP1;ratioP1;P1;durP2;ratioP2;P2;SDS_P1;SDS_P2;PMS_P1;PMS_P2;Temp;Humidity;BMP_temperature;BMP_pressure;BME280_temperature;BME280_humidity;BME280_pressure;Samples;Min_cycle;Max_cycle;Signal;HPM_P1;HPM_P2
2022/07/26 00:00:26;;;;;;;1.77;1.20;;;27.50;46.60;;;;;;5055504;28;20470;-43
2022/07/26 00:02:52;;;;;;;3.05;1.10;;;27.50;47.60;;;;;;5054266;28;20055;-43
2022/07/26 00:05:18;;;;;;;2.10;1.40;;;27.50;46.80;;;;;;5046169;28;20037;-50
2022/07/26 00:07:44;;;;;;;3.15;1.13;;;27.40;46.90;;;;;;5048547;28;20033;-46
2022/07/26 00:10:11;;;;;;;5.18;1.30;;;27.40;47.10;;;;;;5053805;28;20028;-44
2022/07/26 00:12:38;;;;;;;3.97;1.30;;;27.40;47.10;;;;;;5051610;28;20067;-53
2022/07/26 00:15:06;;;;;;;2.80;1.25;;;27.40;47.00;;;;;;5051028;28;20387;-43
2022/07/26 00:17:31;;;;;;;4.25;1.20;;;27.40;47.10;;;;;;5049205;28;20053;-43
2022/07/26 00:19:58;;;;;;;2.63;1.00;;;27.50;47.30;;;;;;5030445;28;20778;-46
2022/07/26 00:22:33;;;;;;;1.98;0.98;;;27.50;47.10;;;;;;5048907;28;20080;-45
2022/07/26 00:24:59;;;;;;;1.52;0.90;;;27.50;47.00;;;;;;5048376;28;20043;-44
2022/07/26 00:27:24;;;;;;;4.80;1.25;;;27.50;47.00;;;;;;5053530;28;20540;-44
2022/07/26 00:29:50;;;;;;;1.20;0.80;;;27.50;47.10;;;;;;5053681;28;20021;-47
2022/07/26 00:32:16;;;;;;;2.13;1.02;;;27.40;47.10;;;;;;5052255;28;20428;-48
2022/07/26 00:34:41;;;;;;;1.42;0.90;;;27.40;47.10;;;;;;5056535;28;20087;-45
2022/07/26 00:37:07;;;;;;;1.50;1.00;;;27.50;47.20;;;;;;5050058;28;20068;-46
2022/07/26 00:39:33;;;;;;;2.65;1.00;;;27.40;47.20;;;;;;5037090;28;20020;-43
2022/07/26 00:41:58;;;;;;;2.38;1.08;;;27.40;47.20;;;;;;5052745;28;20033;-43
2022/07/26 00:44:24;;;;;;;2.83;0.93;;;27.50;47.20;;;;;;5052140;28;20145;-43
2022/07/26 00:46:50;;;;;;;2.88;1.70;;;27.40;47.30;;;;;;5050589;28;20013;-51
2022/07/26 00:49:15;;;;;;;3.85;1.98;;;27.50;47.40;;;;;;5051963;28;20035;-45
2022/07/26 00:51:42;;;;;;;2.22;1.10;;;27.40;47.20;;;;;;5050851;28;20074;-43
2022/07/26 00:54:07;;;;;;;1.67;0.88;;;27.40;47.40;;;;;;5051727;28;20029;-43
2022/07/26 00:56:33;;;;;;;2.63;1.05;;;27.40;47.30;;;;;;5047065;28;20104;-43
2022/07/26 00:59:00;;;;;;;1.52;1.02;;;27.40;47.30;;;;;;5051243;28;20025;-43
2022/07/26 01:01:26;;;;;;;3.55;1.10;;;27.40;47.40;;;;;;5051228;28;20028;-46
2022/07/26 01:03:53;;;;;;;3.92;1.23;;;27.40;47.40;;;;;;5050732;28;20478;-45
2022/07/26 01:06:19;;;;;;;0.85;0.60;;;27.30;47.70;;;;;;5031872;28;20036;-44
2022/07/26 01:08:45;;;;;;;2.03;1.00;;;27.30;47.70;;;;;;5050046;28;20078;-44
2022/07/26 01:11:11;;;;;;;2.00;1.10;;;27.30;47.90;;;;;;5046701;28;20033;-44
2022/07/26 01:13:44;;;;;;;3.10;1.10;;;27.30;48.00;;;;;;5050896;28;20039;-53
2022/07/26 01:16:09;;;;;;;1.65;1.00;;;27.30;48.20;;;;;;5051102;28;20504;-44
2022/07/26 01:18:35;;;;;;;1.70;0.93;;;27.30;48.90;;;;;;5051071;28;20087;-54
2022/07/26 01:21:02;;;;;;;1.67;0.90;;;27.20;49.00;;;;;;5050861;28;20028;-44
2022/07/26 01:23:30;;;;;;;1.95;0.82;;;27.20;49.50;;;;;;5051352;28;20021;-45
2022/07/26 01:25:55;;;;;;;1.15;0.80;;;27.20;50.00;;;;;;5050281;28;20035;-44
2022/07/26 01:28:21;;;;;;;2.28;0.80;;;27.10;50.10;;;;;;5050859;28;20099;-43
2022/07/26 01:30:48;;;;;;;1.75;0.90;;;27.10;51.10;;;;;;5045021;28;20044;-44
2022/07/26 01:33:13;;;;;;;3.13;0.90;;;27.10;51.30;;;;;;5051157;28;20120;-44
2022/07/26 01:35:39;;;;;;;1.95;0.80;;;27.10;51.60;;;;;;5050555;28;20129;-54
2022/07/26 01:38:04;;;;;;;2.30;0.88;;;27.10;52.00;;;;;;5051074;28;20496;-46
2022/07/26 01:40:30;;;;;;;1.67;1.10;;;27.20;52.10;;;;;;5050294;28;20029;-45
2022/07/26 01:42:56;;;;;;;1.55;1.15;;;27.20;52.30;;;;;;5050168;28;20333;-44
2022/07/26 01:45:21;;;;;;;1.95;1.00;;;27.20;52.50;;;;;;5050912;28;20040;-44
2022/07/26 01:47:49;;;;;;;1.63;0.75;;;27.20;52.60;;;;;;5044943;28;20126;-45
2022/07/26 01:50:16;;;;;;;2.00;0.88;;;27.20;52.60;;;;;;5052551;28;20463;-45
2022/07/26 01:52:42;;;;;;;2.53;1.00;;;27.20;52.60;;;;;;5050149;28;20087;-45
2022/07/26 01:55:08;;;;;;;1.25;0.80;;;27.30;52.60;;;;;;5050548;28;20025;-44
2022/07/26 01:57:34;;;;;;;1.60;0.90;;;27.30;52.50;;;;;;5050763;28;20033;-44
2022/07/26 02:00:00;;;;;;;2.75;1.08;;;27.30;52.50;;;;;;5050198;28;20040;-44
2022/07/26 02:02:25;;;;;;;0.75;0.70;;;27.30;52.40;;;;;;5050886;28;20025;-44
2022/07/26 02:04:57;;;;;;;2.95;0.98;;;27.30;52.60;;;;;;5039964;28;20037;-46
2022/07/26 02:07:23;;;;;;;2.72;1.10;;;27.30;52.60;;;;;;5051108;28;20095;-44
2022/07/26 02:09:49;;;;;;;1.63;1.23;;;27.30;52.60;;;;;;5049413;28;20164;-44
2022/07/26 02:12:14;;;;;;;1.45;0.80;;;27.30;52.60;;;;;;5050703;28;20029;-43
2022/07/26 02:14:40;;;;;;;0.90;0.68;;;27.30;52.60;;;;;;5049926;28;20044;-54
2022/07/26 02:17:06;;;;;;;2.80;1.17;;;27.30;52.60;;;;;;5050859;28;20033;-44
2022/07/26 02:19:31;;;;;;;1.35;0.80;;;27.30;52.60;;;;;;5051434;28;20525;-44
2022/07/26 02:21:58;;;;;;;2.95;0.93;;;27.30;52.50;;;;;;5051750;28;20109;-44
2022/07/26 02:24:27;;;;;;;1.52;1.13;;;27.30;52.50;;;;;;5052199;28;20037;-44
2022/07/26 02:26:53;;;;;;;1.70;0.75;;;27.30;52.40;;;;;;5055910;28;20397;-43
2022/07/26 02:29:19;;;;;;;1.48;1.05;;;27.30;52.40;;;;;;5054221;28;20032;-43
2022/07/26 02:31:44;;;;;;;6.13;0.80;;;27.30;52.40;;;;;;5053440;28;20025;-44
2022/07/26 02:34:10;;;;;;;1.38;0.70;;;27.30;52.30;;;;;;5055102;28;20025;-44
2022/07/26 02:36:36;;;;;;;1.00;0.90;;;27.30;52.30;;;;;;5040142;28;20040;-44
2022/07/26 02:39:03;;;;;;;2.92;0.82;;;27.30;52.30;;;;;;5048421;28;20021;-44
2022/07/26 02:41:28;;;;;;;1.55;0.80;;;27.30;52.30;;;;;;5054359;28;20393;-44
2022/07/26 02:43:54;;;;;;;1.65;1.00;;;27.30;53.00;;;;;;5053343;28;20029;-44
2022/07/26 02:46:19;;;;;;;1.70;0.80;;;27.30;52.60;;;;;;5054178;28;20055;-45
2022/07/26 02:48:45;;;;;;;1.63;1.00;;;27.30;53.00;;;;;;5053524;28;20037;-44
2022/07/26 02:51:11;;;;;;;2.75;0.80;;;27.20;53.10;;;;;;5054502;28;20033;-44
2022/07/26 02:53:36;;;;;;;2.08;1.00;;;27.20;53.20;;;;;;5053795;28;20127;-44
2022/07/26 02:56:02;;;;;;;1.00;0.70;;;27.20;53.20;;;;;;5055130;28;20085;-44
2022/07/26 02:58:27;;;;;;;1.40;0.90;;;27.30;53.20;;;;;;5048456;28;20029;-44
2022/07/26 03:00:53;;;;;;;2.60;1.10;;;27.20;52.80;;;;;;5052850;28;20033;-44
2022/07/26 03:03:19;;;;;;;0.93;0.75;;;27.20;52.50;;;;;;5035834;28;20037;-44
2022/07/26 03:05:44;;;;;;;1.50;0.80;;;27.20;52.50;;;;;;5053290;28;20040;-56
2022/07/26 03:08:10;;;;;;;1.13;0.70;;;27.20;52.40;;;;;;5052916;28;20533;-44
2022/07/26 03:10:36;;;;;;;1.05;0.82;;;27.10;52.50;;;;;;5053512;28;20102;-43
2022/07/26 03:13:01;;;;;;;1.10;0.80;;;27.10;53.30;;;;;;5054243;28;20033;-45
2022/07/26 03:15:27;;;;;;;1.30;0.90;;;27.10;52.40;;;;;;5049357;28;20066;-44
2022/07/26 03:17:54;;;;;;;1.13;0.70;;;27.10;52.30;;;;;;5051336;28;20025;-44
2022/07/26 03:20:19;;;;;;;1.00;0.75;;;27.10;52.70;;;;;;5053502;28;20114;-44
2022/07/26 03:22:45;;;;;;;0.82;0.75;;;27.10;52.20;;;;;;5047223;28;20053;-54
2022/07/26 03:25:11;;;;;;;1.23;0.80;;;27.10;52.10;;;;;;5050959;28;20033;-44
2022/07/26 03:27:36;;;;;;;2.15;0.70;;;27.10;52.00;;;;;;5054363;28;20029;-44
2022/07/26 03:30:03;;;;;;;0.73;0.60;;;27.10;52.10;;;;;;5039298;28;20035;-44
2022/07/26 03:32:29;;;;;;;0.80;0.70;;;27.10;52.00;;;;;;5046012;28;20040;-44
2022/07/26 03:34:54;;;;;;;2.03;0.70;;;27.10;51.90;;;;;;5048086;28;20037;-44
2022/07/26 03:37:20;;;;;;;1.67;0.73;;;27.10;51.80;;;;;;5050811;28;20045;-45
2022/07/26 03:39:46;;;;;;;7.35;1.40;;;27.10;51.80;;;;;;5046447;28;20024;-54
2022/07/26 03:42:11;;;;;;;1.00;0.70;;;27.10;51.70;;;;;;5045608;28;20532;-44
2022/07/26 03:44:37;;;;;;;2.00;0.70;;;27.10;51.70;;;;;;5041317;28;20033;-49
2022/07/26 03:47:03;;;;;;;0.80;0.70;;;27.10;51.80;;;;;;5042232;28;20051;-47
2022/07/26 03:49:28;;;;;;;2.00;0.70;;;27.10;51.70;;;;;;5050586;28;20037;-44
2022/07/26 03:51:54;;;;;;;1.40;0.90;;;27.10;51.60;;;;;;5048552;28;20467;-47
2022/07/26 03:54:21;;;;;;;1.70;0.73;;;27.10;51.60;;;;;;5050989;28;20025;-46
2022/07/26 03:56:46;;;;;;;2.30;0.73;;;27.10;51.50;;;;;;5047740;28;20029;-55
2022/07/26 03:59:12;;;;;;;1.10;0.82;;;27.20;51.50;;;;;;5050041;28;20074;-43
2022/07/26 04:01:40;;;;;;;1.45;0.68;;;27.10;51.50;;;;;;5052720;28;20036;-44
2022/07/26 04:04:08;;;;;;;1.60;0.80;;;27.10;51.70;;;;;;5050242;28;20064;-42
2022/07/26 04:06:34;;;;;;;1.02;0.63;;;27.10;51.60;;;;;;5044015;28;20025;-42
2022/07/26 04:08:59;;;;;;;1.17;0.63;;;27.10;51.60;;;;;;5051432;28;20056;-42
2022/07/26 04:11:25;;;;;;;0.70;0.70;;;27.10;51.50;;;;;;5052649;28;20033;-44
2022/07/26 04:13:51;;;;;;;0.90;0.80;;;27.10;51.50;;;;;;5051482;28;20029;-44
2022/07/26 04:16:16;;;;;;;1.02;0.80;;;27.10;51.40;;;;;;5052590;28;20029;-44
2022/07/26 04:18:42;;;;;;;1.15;0.85;;;27.20;51.50;;;;;;5052480;28;20500;-44
2022/07/26 04:21:08;;;;;;;3.53;1.00;;;27.10;51.40;;;;;;5050964;28;20609;-44
2022/07/26 04:23:33;;;;;;;1.17;0.88;;;27.10;51.40;;;;;;5048736;28;20058;-44
2022/07/26 04:25:59;;;;;;;1.98;1.10;;;27.10;51.50;;;;;;5052097;28;20025;-44
2022/07/26 04:28:27;;;;;;;2.33;1.00;;;27.10;51.50;;;;;;5051705;28;20037;-44
2022/07/26 04:30:57;;;;;;;1.35;0.85;;;27.10;51.50;;;;;;5050720;28;20090;-44
2022/07/26 04:33:23;;;;;;;1.10;0.85;;;27.00;51.50;;;;;;5052261;28;20036;-44
2022/07/26 04:35:49;;;;;;;2.25;0.90;;;27.00;51.70;;;;;;5051427;28;20091;-52
2022/07/26 04:38:15;;;;;;;1.13;0.80;;;27.00;51.80;;;;;;5049644;28;20029;-44
2022/07/26 04:40:41;;;;;;;1.80;0.90;;;27.00;51.70;;;;;;5048689;28;20032;-46
2022/07/26 04:43:06;;;;;;;0.75;0.70;;;27.00;51.60;;;;;;5050504;28;20586;-48
2022/07/26 04:45:32;;;;;;;2.13;0.73;;;27.00;51.60;;;;;;5049121;28;20033;-46
2022/07/26 04:47:58;;;;;;;1.30;1.00;;;27.00;51.50;;;;;;5052637;28;20069;-44
2022/07/26 04:50:26;;;;;;;2.90;1.10;;;27.00;51.50;;;;;;5050982;28;20045;-44
2022/07/26 04:52:53;;;;;;;1.73;1.27;;;27.00;51.50;;;;;;5051940;28;20405;-44
2022/07/26 04:55:20;;;;;;;2.45;0.90;;;27.00;51.50;;;;;;5061981;28;20055;-43
2022/07/26 04:57:46;;;;;;;1.02;0.70;;;27.00;51.70;;;;;;5043125;28;20458;-44
2022/07/26 05:00:15;;;;;;;1.33;0.90;;;27.00;51.50;;;;;;5050989;28;20072;-44
2022/07/26 05:02:41;;;;;;;1.50;1.00;;;26.90;51.70;;;;;;5044430;28;20379;-44
2022/07/26 05:05:07;;;;;;;1.20;0.80;;;26.00;53.30;;;;;;5050847;28;20029;-43
2022/07/26 05:07:49;;;;;;;2.08;1.00;;;25.90;53.70;;;;;;5051331;28;20036;-44
2022/07/26 05:10:17;;;;;;;1.55;1.10;;;25.70;54.30;;;;;;5051225;28;20056;-45
2022/07/26 05:12:43;;;;;;;1.90;1.10;;;25.60;54.70;;;;;;5046340;28;20386;-45
2022/07/26 05:15:09;;;;;;;2.10;0.90;;;25.30;55.20;;;;;;5050366;28;20271;-45
2022/07/26 05:17:38;;;;;;;2.33;1.48;;;25.40;55.80;;;;;;5051555;28;20373;-46
2022/07/26 05:20:06;;;;;;;3.50;1.60;;;25.40;55.50;;;;;;5050167;28;20021;-45
2022/07/26 05:22:33;;;;;;;1.20;1.00;;;25.40;55.20;;;;;;5044897;28;20068;-48
2022/07/26 05:24:58;;;;;;;4.07;1.30;;;25.70;54.80;;;;;;5050701;28;20390;-46
2022/07/26 05:27:24;;;;;;;2.40;1.02;;;25.70;54.70;;;;;;5033217;28;20021;-44
2022/07/26 05:29:50;;;;;;;1.42;1.13;;;25.80;54.80;;;;;;5045673;28;20036;-54
2022/07/26 05:32:15;;;;;;;1.25;1.05;;;25.70;54.70;;;;;;5050433;28;20499;-47
2022/07/26 05:34:41;;;;;;;2.63;1.17;;;25.70;54.70;;;;;;5051245;28;20585;-43
2022/07/26 05:37:07;;;;;;;2.08;1.33;;;25.70;54.80;;;;;;5047685;28;20363;-46
2022/07/26 05:39:33;;;;;;;2.10;1.35;;;25.80;54.70;;;;;;5033311;28;20033;-48
2022/07/26 05:41:58;;;;;;;3.80;1.30;;;25.90;54.40;;;;;;5050757;28;20053;-45
2022/07/26 05:44:24;;;;;;;2.72;1.13;;;26.00;54.30;;;;;;5056494;28;20024;-46
2022/07/26 05:46:49;;;;;;;4.38;1.75;;;26.00;54.20;;;;;;5046247;28;20049;-53
2022/07/26 05:49:15;;;;;;;4.80;1.55;;;26.00;54.70;;;;;;5050131;28;20036;-50
2022/07/26 05:51:41;;;;;;;2.00;1.27;;;26.00;54.10;;;;;;5051310;28;20363;-43
2022/07/26 05:54:07;;;;;;;3.13;1.38;;;25.90;54.40;;;;;;5050386;28;20549;-43
2022/07/26 05:56:32;;;;;;;2.67;1.40;;;25.70;54.20;;;;;;5054791;28;20037;-43
2022/07/26 05:58:58;;;;;;;3.42;1.38;;;25.10;55.70;;;;;;5048973;28;20051;-44
2022/07/26 06:01:24;;;;;;;2.50;1.40;;;24.80;56.70;;;;;;5049901;28;20028;-44
2022/07/26 06:03:49;;;;;;;1.33;1.15;;;24.90;56.50;;;;;;5059189;28;20029;-45
2022/07/26 06:06:16;;;;;;;3.20;1.25;;;24.90;56.70;;;;;;5053860;28;20370;-45
2022/07/26 06:08:42;;;;;;;3.33;1.77;;;25.10;56.10;;;;;;5054503;28;20049;-46
2022/07/26 06:11:07;;;;;;;3.20;1.73;;;25.10;56.00;;;;;;5054255;28;20462;-43
2022/07/26 06:13:33;;;;;;;2.78;1.35;;;25.00;55.90;;;;;;5055000;28;20028;-45
2022/07/26 06:15:59;;;;;;;2.65;1.30;;;25.10;55.40;;;;;;5051955;28;20405;-43
2022/07/26 06:18:25;;;;;;;3.85;1.45;;;25.00;55.40;;;;;;5045471;28;20328;-44
2022/07/26 06:20:51;;;;;;;2.80;1.20;;;24.70;55.60;;;;;;5050646;28;20512;-45
2022/07/26 06:23:16;;;;;;;3.53;1.08;;;24.70;54.40;;;;;;5056059;28;20525;-43
2022/07/26 06:25:42;;;;;;;2.70;0.95;;;24.50;54.60;;;;;;5054467;28;20032;-43
2022/07/26 06:28:09;;;;;;;2.13;1.10;;;24.80;54.00;;;;;;5055037;28;20090;-43
2022/07/26 06:30:37;;;;;;;2.65;1.13;;;24.80;53.00;;;;;;5054321;28;20033;-43
2022/07/26 06:33:03;;;;;;;1.77;1.13;;;24.80;52.70;;;;;;5051564;28;20048;-43
2022/07/26 06:35:30;;;;;;;4.47;1.15;;;24.90;52.60;;;;;;5052254;28;20048;-43
2022/07/26 06:37:57;;;;;;;2.03;1.45;;;24.20;54.00;;;;;;5052142;28;20063;-45
2022/07/26 06:40:23;;;;;;;2.47;1.15;;;24.60;52.70;;;;;;5053163;28;20029;-44
2022/07/26 06:42:49;;;;;;;1.73;1.00;;;24.50;52.20;;;;;;5052703;28;20033;-46
2022/07/26 06:45:14;;;;;;;5.20;1.30;;;24.40;51.80;;;;;;5051961;28;20619;-52
2022/07/26 06:47:40;;;;;;;2.35;0.90;;;24.20;51.80;;;;;;5052165;28;20057;-43
2022/07/26 06:50:06;;;;;;;3.83;1.15;;;24.50;51.60;;;;;;5050883;28;20032;-43
2022/07/26 06:52:32;;;;;;;1.48;0.98;;;24.70;50.50;;;;;;5053061;28;20025;-45
2022/07/26 06:54:59;;;;;;;4.22;1.33;;;25.00;50.00;;;;;;5053562;28;20051;-44
2022/07/26 06:57:25;;;;;;;1.42;0.95;;;24.70;50.50;;;;;;5036440;28;20029;-43
2022/07/26 06:59:51;;;;;;;3.80;0.93;;;24.90;49.50;;;;;;5053821;28;20381;-50
2022/07/26 07:02:17;;;;;;;4.07;0.75;;;24.80;48.70;;;;;;5051415;28;20040;-43
2022/07/26 07:04:43;;;;;;;4.45;1.42;;;24.50;48.90;;;;;;5053006;28;20036;-43
2022/07/26 07:07:08;;;;;;;3.22;0.80;;;24.80;48.70;;;;;;5054138;28;20108;-44
2022/07/26 07:09:35;;;;;;;3.33;1.10;;;25.00;47.80;;;;;;5053119;28;20131;-41
2022/07/26 07:12:05;;;;;;;3.83;0.95;;;25.00;47.10;;;;;;5052787;28;20496;-41
2022/07/26 07:14:31;;;;;;;1.20;0.63;;;24.80;47.40;;;;;;5050302;28;20378;-44
2022/07/26 07:16:57;;;;;;;2.50;0.80;;;24.80;47.70;;;;;;5053090;28;20033;-46
2022/07/26 07:19:23;;;;;;;2.47;0.90;;;25.10;47.00;;;;;;5055675;28;20083;-43
2022/07/26 07:21:49;;;;;;;1.48;0.70;;;24.90;47.70;;;;;;5060225;28;20086;-44
2022/07/26 07:24:15;;;;;;;2.03;1.27;;;24.80;48.00;;;;;;5051958;28;20271;-43
2022/07/26 07:26:41;;;;;;;1.23;0.70;;;24.90;47.50;;;;;;5052811;28;20024;-43
2022/07/26 07:29:10;;;;;;;1.00;0.80;;;24.90;47.20;;;;;;5050779;28;20086;-43
2022/07/26 07:31:36;;;;;;;1.88;0.70;;;24.70;47.60;;;;;;5053218;28;20478;-44
2022/07/26 07:34:02;;;;;;;2.63;0.90;;;25.10;47.80;;;;;;5051620;28;20120;-41
2022/07/26 07:36:28;;;;;;;1.70;0.80;;;25.30;46.80;;;;;;5051085;28;20085;-41
2022/07/26 07:38:53;;;;;;;2.25;0.95;;;25.30;46.70;;;;;;5052717;28;20116;-50
2022/07/26 07:41:19;;;;;;;2.20;0.60;;;25.40;46.20;;;;;;5052246;28;20021;-47
2022/07/26 07:43:45;;;;;;;2.42;0.68;;;25.30;45.70;;;;;;5052584;28;20048;-41
2022/07/26 07:46:11;;;;;;;3.40;0.93;;;25.50;45.90;;;;;;5046688;28;20057;-41
2022/07/26 07:48:39;;;;;;;5.28;1.00;;;25.70;45.70;;;;;;5047671;28;20052;-40
2022/07/26 07:51:08;;;;;;;1.73;0.80;;;25.70;45.40;;;;;;5053986;28;20029;-41
2022/07/26 07:53:33;;;;;;;4.93;1.00;;;25.20;45.90;;;;;;5052757;28;20120;-41
2022/07/26 07:55:59;;;;;;;2.80;0.90;;;25.40;45.80;;;;;;5034198;28;20127;-41
2022/07/26 07:58:25;;;;;;;3.15;0.95;;;25.40;45.40;;;;;;5052765;28;20033;-40
2022/07/26 08:00:51;;;;;;;3.00;0.80;;;25.30;45.40;;;;;;5050279;28;20492;-44
2022/07/26 08:03:17;;;;;;;1.30;0.70;;;25.60;45.20;;;;;;5053705;28;20029;-43
2022/07/26 08:05:43;;;;;;;2.05;0.85;;;25.90;45.00;;;;;;5054334;28;20025;-42
2022/07/26 08:08:09;;;;;;;1.48;1.13;;;26.10;45.30;;;;;;5051012;28;20570;-42
2022/07/26 08:10:34;;;;;;;1.60;0.85;;;26.30;45.60;;;;;;5052351;28;20539;-42
2022/07/26 08:13:00;;;;;;;2.45;0.90;;;26.30;45.60;;;;;;5050227;28;20087;-44
2022/07/26 08:15:26;;;;;;;2.42;0.90;;;26.40;45.70;;;;;;5052734;28;20078;-42
2022/07/26 08:17:52;;;;;;;2.05;0.70;;;26.50;45.80;;;;;;5051026;28;20029;-52
2022/07/26 08:20:18;;;;;;;1.63;0.90;;;26.50;45.70;;;;;;5051371;28;20592;-42
2022/07/26 08:22:44;;;;;;;2.13;1.00;;;26.60;45.90;;;;;;5051961;28;20111;-42
2022/07/26 08:25:10;;;;;;;4.03;0.65;;;26.60;45.80;;;;;;5051210;28;20118;-42
2022/07/26 08:27:35;;;;;;;2.78;1.20;;;26.60;46.40;;;;;;5052476;28;20025;-44
2022/07/26 08:30:02;;;;;;;1.73;0.80;;;26.70;45.80;;;;;;5052985;28;20064;-43
2022/07/26 08:32:27;;;;;;;1.13;0.77;;;26.70;45.80;;;;;;5051563;28;20493;-42
2022/07/26 08:34:53;;;;;;;0.70;0.60;;;26.70;45.80;;;;;;5046504;28;20045;-52
2022/07/26 08:37:19;;;;;;;2.30;0.80;;;26.70;45.90;;;;;;5046475;28;20025;-46
2022/07/26 08:39:46;;;;;;;0.70;0.60;;;26.70;45.80;;;;;;5051964;28;20025;-42
2022/07/26 08:42:23;;;;;;;0.90;0.60;;;26.80;45.90;;;;;;5050750;28;20095;-43
2022/07/26 08:44:49;;;;;;;3.00;0.80;;;26.80;46.00;;;;;;5049131;28;20033;-50
2022/07/26 08:47:18;;;;;;;3.83;1.25;;;26.80;45.90;;;;;;5050901;28;20103;-42
2022/07/26 08:49:45;;;;;;;1.58;0.70;;;26.80;45.90;;;;;;5051992;28;20040;-42
2022/07/26 08:52:12;;;;;;;1.70;1.05;;;26.80;45.90;;;;;;5050393;28;20027;-42
2022/07/26 08:54:51;;;;;;;7.47;1.13;;;26.90;46.00;;;;;;5050500;28;20036;-43
2022/07/26 08:57:17;;;;;;;2.45;0.70;;;26.80;45.90;;;;;;5050722;28;20021;-42
2022/07/26 08:59:43;;;;;;;1.75;0.73;;;26.90;45.90;;;;;;5052302;28;20029;-42
2022/07/26 09:02:11;;;;;;;1.42;0.73;;;26.90;45.80;;;;;;5055055;28;20040;-42
2022/07/26 09:04:43;;;;;;;1.05;0.70;;;26.90;45.90;;;;;;5050939;28;20040;-44
2022/07/26 09:07:17;;;;;;;1.85;0.70;;;26.90;45.80;;;;;;5049956;28;20094;-44
2022/07/26 09:10:01;;;;;;;2.70;0.85;;;27.00;45.80;;;;;;5050727;28;20106;-42
2022/07/26 09:12:28;;;;;;;1.33;0.70;;;27.00;45.90;;;;;;5051292;28;20029;-42
2022/07/26 09:14:55;;;;;;;1.33;0.82;;;27.00;45.90;;;;;;5049774;28;20482;-52
2022/07/26 09:17:23;;;;;;;2.03;0.73;;;27.00;45.90;;;;;;5050848;28;20037;-42
2022/07/26 09:20:09;;;;;;;1.63;0.60;;;27.00;45.90;;;;;;5048826;28;20082;-42
2022/07/26 09:22:37;;;;;;;0.73;0.60;;;27.00;45.80;;;;;;5047719;28;20029;-42
2022/07/26 09:25:19;;;;;;;1.15;0.68;;;27.00;45.90;;;;;;5050314;28;20033;-42
2022/07/26 09:27:45;;;;;;;3.53;0.90;;;27.00;45.80;;;;;;5050362;28;20037;-42
2022/07/26 09:30:11;;;;;;;1.95;0.73;;;27.10;45.90;;;;;;5049723;28;20044;-42
2022/07/26 09:32:37;;;;;;;2.00;0.55;;;27.10;46.00;;;;;;5050397;28;20111;-42
2022/07/26 09:35:11;;;;;;;1.67;0.57;;;27.10;45.90;;;;;;5049700;28;20119;-42
2022/07/26 09:37:38;;;;;;;1.23;0.70;;;27.10;45.90;;;;;;5050324;28;20033;-45
2022/07/26 09:40:07;;;;;;;2.53;0.50;;;27.10;45.90;;;;;;5032129;28;20476;-42
2022/07/26 09:42:33;;;;;;;1.35;0.85;;;27.10;45.80;;;;;;5050363;28;20037;-42
2022/07/26 09:44:58;;;;;;;1.02;0.57;;;27.10;45.80;;;;;;5050320;28;20044;-43
2022/07/26 09:47:42;;;;;;;3.08;0.75;;;27.10;45.90;;;;;;5049790;28;20469;-42
2022/07/26 09:50:26;;;;;;;0.90;0.57;;;27.10;46.00;;;;;;5049065;28;20108;-42
2022/07/26 09:53:08;;;;;;;1.30;0.65;;;27.10;46.00;;;;;;5050133;28;20025;-51
2022/07/26 09:55:35;;;;;;;;;;;27.10;46.00;;;;;;5046134;28;20037;-42
2022/07/26 09:58:02;;;;;;;3.13;0.63;;;27.10;46.20;;;;;;5049918;28;19988;-42
2022/07/26 10:00:30;;;;;;;1.63;0.80;;;27.20;46.20;;;;;;5045306;28;20017;-42
2022/07/26 10:02:55;;;;;;;1.95;0.85;;;27.20;46.30;;;;;;5052400;28;20037;-50
2022/07/26 10:05:21;;;;;;;1.60;0.70;;;27.20;46.40;;;;;;5050138;28;20037;-45
2022/07/26 10:07:51;;;;;;;2.42;0.50;;;27.20;46.40;;;;;;5049745;28;20025;-43
2022/07/26 10:10:27;;;;;;;1.42;0.70;;;27.20;46.40;;;;;;5052220;28;20083;-45
2022/07/26 10:12:53;;;;;;;1.15;0.52;;;27.20;46.40;;;;;;5050669;28;20044;-51
2022/07/26 10:15:43;;;;;;;1.52;0.70;;;27.20;46.50;;;;;;5050287;28;20459;-42
2022/07/26 10:18:11;;;;;;;1.58;0.60;;;27.20;46.50;;;;;;5040098;28;20300;-43
2022/07/26 10:20:42;;;;;;;2.35;0.60;;;27.20;46.40;;;;;;5050047;28;20033;-43
2022/07/26 10:23:26;;;;;;;;;;;27.20;46.40;;;;;;5057751;28;20123;-42
2022/07/26 10:25:52;;;;;;;0.93;0.85;;;27.20;46.50;;;;;;5052292;28;20339;-52
2022/07/26 10:28:26;;;;;;;3.22;1.17;;;27.20;46.60;;;;;;5049371;28;20029;-47
2022/07/26 10:31:12;;;;;;;2.63;0.68;;;27.20;46.80;;;;;;5048645;28;20086;-53
2022/07/26 10:33:44;;;;;;;1.27;0.50;;;27.20;46.80;;;;;;5042213;28;20052;-42
2022/07/26 10:36:38;;;;;;;1.55;0.77;;;27.30;46.80;;;;;;5047701;28;20064;-42
2022/07/26 10:39:05;;;;;;;0.40;0.40;;;27.30;46.70;;;;;;5051742;28;20040;-42
2022/07/26 10:41:41;;;;;;;2.35;0.65;;;27.20;46.60;;;;;;5052227;28;20033;-43
2022/07/26 10:44:20;;;;;;;1.42;0.65;;;27.20;46.60;;;;;;5053727;28;20033;-43
2022/07/26 10:47:13;;;;;;;1.98;1.13;;;27.30;46.60;;;;;;5050124;28;20390;-48
2022/07/26 10:49:40;;;;;;;0.70;0.50;;;27.30;46.60;;;;;;5044536;28;20379;-42
2022/07/26 10:52:14;;;;;;;1.55;0.70;;;27.30;46.60;;;;;;5052952;28;20371;-42
2022/07/26 10:54:57;;;;;;;1.48;0.60;;;27.30;46.50;;;;;;5053936;28;20041;-42
2022/07/26 10:57:24;;;;;;;0.90;0.80;;;27.30;46.50;;;;;;5051869;28;20037;-49
2022/07/26 10:59:50;;;;;;;1.58;0.70;;;27.30;46.50;;;;;;5053573;28;20014;-43
2022/07/26 11:02:20;;;;;;;2.00;0.70;;;27.30;46.50;;;;;;5052795;28;20100;-42
2022/07/26 11:04:46;;;;;;;1.63;0.50;;;27.30;46.40;;;;;;5053558;28;20083;-42
2022/07/26 11:07:12;;;;;;;1.45;1.35;;;27.30;46.50;;;;;;5052251;28;20062;-44
2022/07/26 11:09:38;;;;;;;0.88;0.55;;;27.30;46.60;;;;;;5036566;28;20120;-41
2022/07/26 11:12:20;;;;;;;1.25;0.60;;;27.30;46.70;;;;;;5032781;28;20485;-43
2022/07/26 11:14:46;;;;;;;2.15;0.60;;;27.30;46.70;;;;;;5033170;28;20394;-42
2022/07/26 11:17:31;;;;;;;1.33;0.50;;;27.30;46.80;;;;;;5032837;28;20059;-43
2022/07/26 11:19:57;;;;;;;1.52;0.50;;;27.40;47.00;;;;;;5032642;28;20033;-43
2022/07/26 11:22:33;;;;;;;1.00;0.50;;;27.40;46.90;;;;;;5014290;28;20036;-42
2022/07/26 11:24:58;;;;;;;2.47;0.60;;;27.40;46.70;;;;;;5031064;28;20387;-43
2022/07/26 11:27:24;;;;;;;0.77;0.60;;;27.40;46.70;;;;;;5040389;28;20025;-44
2022/07/26 11:29:50;;;;;;;1.25;0.70;;;27.40;46.60;;;;;;5033024;28;20382;-43
2022/07/26 11:32:21;;;;;;;0.88;0.70;;;27.40;46.30;;;;;;5028301;28;20091;-43
2022/07/26 11:35:00;;;;;;;0.98;0.68;;;27.40;46.20;;;;;;5034753;28;20394;-43
2022/07/26 11:37:26;;;;;;;1.77;0.60;;;27.40;46.20;;;;;;5036762;28;20034;-43
2022/07/26 11:39:52;;;;;;;1.65;0.80;;;27.40;46.10;;;;;;5032622;28;20463;-51
2022/07/26 11:42:18;;;;;;;1.77;0.80;;;27.40;46.00;;;;;;5032075;28;20021;-43
2022/07/26 11:44:45;;;;;;;2.13;0.60;;;27.40;46.40;;;;;;5033213;28;20149;-44
2022/07/26 11:47:13;;;;;;;0.95;0.65;;;27.40;46.10;;;;;;5032361;28;20229;-47
2022/07/26 11:49:39;;;;;;;1.60;0.70;;;27.40;46.10;;;;;;5033149;28;20029;-44
2022/07/26 11:52:05;;;;;;;0.95;0.60;;;27.40;46.10;;;;;;5031111;28;20041;-43
2022/07/26 11:54:44;;;;;;;1.50;0.82;;;27.40;45.90;;;;;;5032807;28;20026;-46
2022/07/26 11:57:10;;;;;;;0.55;0.50;;;27.40;46.10;;;;;;5031238;28;20063;-44
2022/07/26 11:59:38;;;;;;;0.50;0.47;;;27.40;46.10;;;;;;5031778;28;20383;-44
2022/07/26 12:02:06;;;;;;;0.93;0.50;;;27.40;46.10;;;;;;5031680;28;20026;-48
2022/07/26 12:04:36;;;;;;;0.63;0.55;;;27.40;46.10;;;;;;5029597;28;20040;-41
2022/07/26 12:07:18;;;;;;;3.13;0.82;;;27.40;46.00;;;;;;5031411;28;20117;-42
2022/07/26 12:09:51;;;;;;;1.20;0.60;;;27.40;46.00;;;;;;5042706;28;20398;-42
2022/07/26 12:12:20;;;;;;;1.35;0.60;;;27.40;45.90;;;;;;5050681;28;20025;-44
2022/07/26 12:14:56;;;;;;;1.25;0.50;;;27.40;45.90;;;;;;5052456;28;20036;-43
2022/07/26 12:17:23;;;;;;;0.55;0.52;;;27.40;45.90;;;;;;5051656;28;20432;-50
2022/07/26 12:19:48;;;;;;;0.70;0.60;;;27.40;46.00;;;;;;5052273;28;20040;-43
2022/07/26 12:22:19;;;;;;;1.83;0.70;;;27.40;46.00;;;;;;5051455;28;20021;-43
2022/07/26 12:24:51;;;;;;;1.42;0.57;;;27.40;46.20;;;;;;5046664;28;20375;-43
2022/07/26 12:27:28;;;;;;;0.90;0.60;;;27.40;46.60;;;;;;5056655;28;20029;-43
2022/07/26 12:29:59;;;;;;;0.98;0.60;;;27.40;46.60;;;;;;5050522;28;20025;-53
2022/07/26 12:32:36;;;;;;;0.57;0.50;;;27.40;46.30;;;;;;5047927;28;20428;-43
2022/07/26 12:35:02;;;;;;;0.90;0.60;;;27.40;46.10;;;;;;5050987;28;20102;-43
2022/07/26 12:37:29;;;;;;;1.02;0.60;;;27.40;46.10;;;;;;5051295;28;20502;-43
2022/07/26 12:40:03;;;;;;;0.70;0.60;;;27.40;46.20;;;;;;5051107;28;20036;-52
2022/07/26 12:42:31;;;;;;;1.20;0.50;;;27.40;46.10;;;;;;5051319;28;20406;-40
2022/07/26 12:44:57;;;;;;;1.90;0.57;;;27.40;45.90;;;;;;5050624;28;20036;-42
2022/07/26 12:47:24;;;;;;;0.93;0.60;;;27.40;45.80;;;;;;5051570;28;20029;-44
2022/07/26 12:49:51;;;;;;;0.88;0.80;;;27.40;45.90;;;;;;5051438;28;20033;-45